createdAt,value
2018-06-16T00:02:01.309Z,14.0
2018-06-16T00:07:01.277Z,14.1
2018-06-16T00:13:01.319Z,14.6
2018-06-16T00:18:01.452Z,15.2
2018-06-16T00:23:01.269Z,15.3
2018-06-16T00:28:01.345Z,15.6
2018-06-16T00:33:01.280Z,15.2
2018-06-16T00:38:01.409Z,14.8
2018-06-16T00:43:01.250Z,14.1
2018-06-16T00:48:01.289Z,14.2
2018-06-16T00:53:01.319Z,13.6
2018-06-16T00:58:01.364Z,14.2
2018-06-16T01:03:06.272Z,13.9
2018-06-16T01:08:01.305Z,14.1
2018-06-16T01:13:01.207Z,13.8
2018-06-16T01:18:01.280Z,14.4
2018-06-16T01:23:01.272Z,13.6
2018-06-16T01:28:01.356Z,14.2
2018-06-16T01:33:01.235Z,14.1
2018-06-16T01:43:01.362Z,14.3
2018-06-16T01:48:01.301Z,15.1
2018-06-16T01:53:01.203Z,15.2
2018-06-16T01:58:01.302Z,15.6
2018-06-16T02:03:01.210Z,16.1
2018-06-16T02:08:01.448Z,15.1
2018-06-16T02:13:01.215Z,14.8
2018-06-16T02:19:01.291Z,14.6
2018-06-16T02:24:01.264Z,14.2
2018-06-16T02:29:01.299Z,13.8
2018-06-16T02:34:01.205Z,14.2
2018-06-16T02:39:02.971Z,13.7
2018-06-16T02:44:01.238Z,12.8
2018-06-16T02:49:01.310Z,12.0
2018-06-16T02:54:01.230Z,11.5
2018-06-16T02:59:01.211Z,11.0
2018-06-16T03:04:01.234Z,10.0
2018-06-16T03:09:01.244Z,9.4
2018-06-16T03:14:01.239Z,9.5
2018-06-16T03:19:01.243Z,9.0
2018-06-16T03:24:01.272Z,8.7
2018-06-16T03:29:01.375Z,9.3
2018-06-16T03:34:01.227Z,9.8
2018-06-16T03:39:02.963Z,10.0
2018-06-16T03:49:01.245Z,9.9
2018-06-16T03:54:01.238Z,9.7
2018-06-16T03:59:01.236Z,9.3
2018-06-16T04:04:01.212Z,8.5
2018-06-16T04:09:01.370Z,7.9
2018-06-16T04:14:01.309Z,8.0
2018-06-16T04:20:01.298Z,8.3
2018-06-16T04:25:01.235Z,8.0
2018-06-16T04:30:01.235Z,8.6
2018-06-16T04:35:01.225Z,8.8
2018-06-16T04:40:01.371Z,8.9
2018-06-16T04:45:01.245Z,8.8
2018-06-16T04:50:01.401Z,9.0
2018-06-16T04:56:01.236Z,8.9
2018-06-16T05:01:01.749Z,9.0
2018-06-16T05:06:01.234Z,9.2
2018-06-16T05:11:00.924Z,8.0
2018-06-16T05:30:00.980Z,11.2
2018-06-16T05:35:00.889Z,11.1
2018-06-16T05:40:00.982Z,10.4
2018-06-16T05:45:00.891Z,10.1
2018-06-16T05:50:00.982Z,10.7
2018-06-16T05:55:00.929Z,10.4
2018-06-16T06:00:01.093Z,10.0
2018-06-16T06:10:00.967Z,9.6
2018-06-16T06:15:00.870Z,8.6
2018-06-16T06:20:01.127Z,8.3
2018-06-16T06:25:00.938Z,8.2
2018-06-16T06:30:01.041Z,7.8
2018-06-16T06:35:00.909Z,8.7
2018-06-16T06:40:00.988Z,8.8
2018-06-16T06:45:00.921Z,9.9
2018-06-16T06:50:00.984Z,10.5
2018-06-16T06:55:00.920Z,12.2
2018-06-16T07:00:01.121Z,13.0
2018-06-16T07:05:00.928Z,13.8
2018-06-16T07:10:01.002Z,13.6
2018-06-16T07:15:00.931Z,13.8
2018-06-16T07:20:01.003Z,13.2
2018-06-16T07:25:00.958Z,12.5
2018-06-16T07:30:01.076Z,12.6
2018-06-16T07:35:00.937Z,12.8
2018-06-16T07:40:01.000Z,12.7
2018-06-16T07:45:01.004Z,13.3
2018-06-16T07:50:01.008Z,14.5
2018-06-16T08:00:01.080Z,15.3
2018-06-16T08:05:00.943Z,15.6
2018-06-16T08:15:01.079Z,15.5
2018-06-16T08:20:01.030Z,15.7
2018-06-16T08:25:00.977Z,15.4
2018-06-16T08:30:00.950Z,15.5
2018-06-16T08:35:01.023Z,15.6
2018-06-16T08:40:01.090Z,15.4
2018-06-16T08:45:00.923Z,15.5
2018-06-16T08:50:01.019Z,16.2
2018-06-16T08:55:00.958Z,16.8
2018-06-16T09:00:02.443Z,17.0
2018-06-16T09:10:01.090Z,17.4
2018-06-16T09:15:00.978Z,16.6
2018-06-16T09:20:01.073Z,15.8
2018-06-16T09:30:01.033Z,16.0
2018-06-16T09:35:00.978Z,15.8
2018-06-16T09:40:01.169Z,16.5
2018-06-16T09:45:00.951Z,16.9
2018-06-16T09:50:01.051Z,16.5
2018-06-16T09:55:00.960Z,16.9
2018-06-16T10:00:01.054Z,17.6
2018-06-16T10:05:00.994Z,17.9
2018-06-16T10:15:01.063Z,18.3
2018-06-16T10:20:01.030Z,18.8
2018-06-16T10:25:01.029Z,19.0
2018-06-16T10:30:01.066Z,19.5
2018-06-16T10:35:01.004Z,20.0
2018-06-16T10:40:01.127Z,20.4
2018-06-16T10:45:01.002Z,19.4
2018-06-16T10:50:01.069Z,19.7
2018-06-16T10:55:01.163Z,19.9
2018-06-16T11:00:01.116Z,21.1
2018-06-16T11:05:01.019Z,22.2
2018-06-16T11:10:01.180Z,24.2
2018-06-16T11:15:01.015Z,26.1
2018-06-16T11:20:01.080Z,26.4
2018-06-16T11:25:01.017Z,26.3
2018-06-16T11:30:01.087Z,27.6
2018-06-16T11:35:01.011Z,28.8
2018-06-16T11:45:01.095Z,28.3
2018-06-16T11:50:01.101Z,26.3
2018-06-16T11:55:01.324Z,22.4
2018-06-16T12:00:01.098Z,17.7
2018-06-16T12:05:01.039Z,13.9
2018-06-16T12:10:01.173Z,11.2
2018-06-16T12:15:01.038Z,9.9
2018-06-16T12:20:01.204Z,9.8
2018-06-16T12:30:01.209Z,9.4
2018-06-16T12:35:01.048Z,9.3
2018-06-16T12:40:01.184Z,9.4
2018-06-16T12:45:01.119Z,9.8
2018-06-16T12:50:01.058Z,10.0
2018-06-16T12:55:01.066Z,10.8
2018-06-16T13:00:01.191Z,12.9
2018-06-16T13:05:01.065Z,14.0
2018-06-16T13:10:01.196Z,15.4
2018-06-16T13:15:01.032Z,16.6
2018-06-16T13:20:01.138Z,16.7
2018-06-16T13:25:01.068Z,17.2
2018-06-16T13:30:01.150Z,17.4
2018-06-16T13:35:01.147Z,17.8
2018-06-16T13:40:01.140Z,17.4
2018-06-16T13:45:01.081Z,17.4
2018-06-16T13:50:01.278Z,17.0
2018-06-16T13:55:01.098Z,17.8
2018-06-16T14:00:01.213Z,18.4
2018-06-16T14:05:01.087Z,20.1
2018-06-16T14:10:01.092Z,23.0
2018-06-16T14:15:01.118Z,25.0
2018-06-16T14:20:01.224Z,26.4
2018-06-16T14:25:01.144Z,27.4
2018-06-16T14:30:01.170Z,28.0
2018-06-16T14:35:01.161Z,28.4
2018-06-16T14:40:01.167Z,29.2
2018-06-16T14:45:01.088Z,29.7
2018-06-16T14:50:01.127Z,29.6
2018-06-16T14:55:01.107Z,29.7
2018-06-16T15:00:01.182Z,28.8
2018-06-16T15:05:01.220Z,28.4
2018-06-16T15:10:01.182Z,29.0
2018-06-16T15:15:01.098Z,28.4
2018-06-16T15:20:01.262Z,29.2
2018-06-16T15:25:01.145Z,29.6
2018-06-16T15:30:01.195Z,29.8
2018-06-16T15:35:01.138Z,29.9
2018-06-16T15:40:01.189Z,32.2
2018-06-16T15:45:01.127Z,32.9
2018-06-16T15:50:01.258Z,32.7
2018-06-16T15:55:01.193Z,31.9
2018-06-16T16:00:01.331Z,31.4
2018-06-16T16:05:01.138Z,29.2
2018-06-16T16:10:01.203Z,28.0
2018-06-16T16:15:01.142Z,27.7
2018-06-16T16:20:01.322Z,28.1
2018-06-16T16:25:01.178Z,27.2
2018-06-16T16:30:01.606Z,27.6
2018-06-16T16:35:01.118Z,26.7
2018-06-16T16:40:01.155Z,26.8
2018-06-16T16:45:01.158Z,27.8
2018-06-16T16:50:01.349Z,28.7
2018-06-16T16:55:01.159Z,30.6
2018-06-16T17:00:01.237Z,32.5
2018-06-16T17:05:01.169Z,33.2
2018-06-16T17:10:01.229Z,33.6
2018-06-16T17:15:01.165Z,35.0
2018-06-16T17:20:01.364Z,35.7
2018-06-16T17:25:01.168Z,36.8
2018-06-16T17:30:01.240Z,38.9
2018-06-16T17:40:01.305Z,38.3
2018-06-16T17:45:01.246Z,37.1
2018-06-16T17:50:01.380Z,37.0
2018-06-16T17:55:01.153Z,35.7
2018-06-16T18:00:01.702Z,37.0
2018-06-16T18:05:01.348Z,38.9
2018-06-16T18:10:01.252Z,40.2
2018-06-16T18:15:01.241Z,41.0
2018-06-16T18:20:01.384Z,43.8
2018-06-16T18:25:01.188Z,44.4
2018-06-16T18:30:01.166Z,44.6
2018-06-16T18:35:01.194Z,44.8
2018-06-16T18:40:01.277Z,44.5
2018-06-16T18:45:01.213Z,43.0
2018-06-16T18:50:01.340Z,42.8
2018-06-16T18:55:01.206Z,43.0
2018-06-16T19:00:01.271Z,43.9
2018-06-16T19:05:01.207Z,44.5
2018-06-16T19:10:01.283Z,44.8
2018-06-16T19:15:01.219Z,45.0
2018-06-16T19:20:01.341Z,45.2
2018-06-16T19:25:01.213Z,45.7
2018-06-16T19:30:01.348Z,46.1
2018-06-16T19:35:01.225Z,46.2
2018-06-16T19:40:01.290Z,45.9
2018-06-16T19:45:01.361Z,46.0
2018-06-16T19:50:01.429Z,45.7
2018-06-16T19:55:01.239Z,46.7
2018-06-16T20:00:01.428Z,47.3
2018-06-16T20:05:01.239Z,47.8
2018-06-16T20:15:01.258Z,47.0
2018-06-16T20:20:01.319Z,46.0
2018-06-16T20:25:01.244Z,45.6
2018-06-16T20:30:02.220Z,44.6
2018-06-16T20:40:01.377Z,45.0
2018-06-16T20:45:01.272Z,44.8
2018-06-16T20:50:01.366Z,44.6
2018-06-16T20:55:01.240Z,45.7
2018-06-16T21:00:01.366Z,44.5
2018-06-16T21:05:01.246Z,45.6
2018-06-16T21:10:01.254Z,46.4
2018-06-16T21:15:01.227Z,46.5
2018-06-16T21:20:01.364Z,44.6
2018-06-16T21:25:01.238Z,45.2
2018-06-16T21:30:01.307Z,44.1
2018-06-16T21:35:01.395Z,43.3
2018-06-16T21:40:01.433Z,43.4
2018-06-16T21:45:01.245Z,45.9
2018-06-16T21:50:01.440Z,47.5
2018-06-16T21:55:01.230Z,48.0
2018-06-16T22:00:01.314Z,48.5
2018-06-16T22:05:01.328Z,48.8
2018-06-16T22:10:01.249Z,48.6
2018-06-16T22:15:01.212Z,47.8
2018-06-16T22:20:02.075Z,48.2
2018-06-16T22:25:01.275Z,47.3
2018-06-16T22:31:01.389Z,47.5
2018-06-16T22:36:01.231Z,47.7
2018-06-16T22:41:01.339Z,47.2
2018-06-16T22:46:01.285Z,47.0
2018-06-16T22:51:01.336Z,48.5
2018-06-16T22:56:01.320Z,49.3
2018-06-16T23:01:01.400Z,49.8
2018-06-16T23:06:01.198Z,51.0
2018-06-16T23:11:01.324Z,52.4
2018-06-16T23:16:01.228Z,52.6
2018-06-16T23:21:01.323Z,52.8
2018-06-16T23:26:01.268Z,51.8
2018-06-16T23:31:01.436Z,51.0
2018-06-16T23:36:01.245Z,51.2
2018-06-16T23:41:01.349Z,50.8
2018-06-16T23:46:01.227Z,51.3
2018-06-16T23:51:01.228Z,53.0
2018-06-16T23:56:01.230Z,55.2
